Main page
METAR-TAF:

METAR-TAF

Airports :

Plzeň, Czech Republic

latitude: 49-40-31N, longitude: 13-16-29E, elevation: 362 m

Current weather observation

The report was made 28 minutes ago, at 22:22 UTC
Wind 3 kt from the North/Northeast, varying between North/Northwest and East/Northeast
Temperature 1°C
Humidity 100%
Pressure 1013 hPa
Visibility: 4300 m
Broken clouds at a height of 400 ft
Broken clouds at a height of 1300 ft
Overcast at a height of 1700 ft
light rain, mist

METAR: LKLN 202222Z AUTO 03003KT 340V070 4300 -RA BR BKN004 BKN013 OVC017 01/01 Q1013

Time: 23:50 (22:50 UTC)


TAF: missing

Weather observations and forecasts of more than 4000 airports (METAR and TAF reports).

The available stations are represented by yellow and red dots on the map.

Hover mouse over dot to see the name of the station.

Then click to see weather observations and forecasts.

To change the map : click on the green buttons with a black cross to zoom in, on the green button with a dash to zoom out, or on the green arrows for adjacent maps.


METAR-TAF: